Time;durP1;ratioP1;P1;durP2;ratioP2;P2;SDS_P1;SDS_P2;PMS_P1;PMS_P2;Temp;Humidity;BMP_temperature;BMP_pressure;BME280_temperature;BME280_humidity;BME280_pressure;Samples;Min_cycle;Max_cycle;Signal;HPM_P1;HPM_P2
2024/01/22 00:01:18;;;;;;;;;;;6.40;99.90;;;;;;5047684;28;20005;-77
2024/01/22 00:04:04;;;;;;;;;;;6.50;99.90;;;;;;5035969;28;20388;-77
2024/01/22 00:06:52;;;;;;;;;;;6.50;99.90;;;;;;5023225;28;19935;-76
2024/01/22 00:09:37;;;;;;;;;;;6.50;99.90;;;;;;5032228;28;20218;-77
2024/01/22 00:12:23;;;;;;;;;;;6.50;99.90;;;;;;5039499;28;19917;-76
2024/01/22 00:15:09;;;;;;;;;;;6.50;99.90;;;;;;5021512;28;20412;-75
2024/01/22 00:17:55;;;;;;;;;;;6.50;99.90;;;;;;5048353;28;19916;-77
2024/01/22 00:20:41;;;;;;;;;;;6.50;99.90;;;;;;5016894;28;19920;-76
2024/01/22 00:23:30;;;;;;;;;;;6.50;99.90;;;;;;5025091;28;19921;-77
2024/01/22 00:26:16;;;;;;;;;;;6.60;99.90;;;;;;5035641;28;19924;-76
2024/01/22 00:29:02;;;;;;;;;;;6.60;99.90;;;;;;5025457;28;19967;-76
2024/01/22 00:31:47;;;;;;;;;;;6.60;99.90;;;;;;5021009;28;19927;-76
2024/01/22 00:34:33;;;;;;;;;;;6.60;99.90;;;;;;5032614;28;19917;-76
2024/01/22 00:37:22;;;;;;;;;;;6.70;99.90;;;;;;5032763;28;19917;-76
2024/01/22 00:40:08;;;;;;;;;;;6.70;99.90;;;;;;5018628;28;19921;-76
2024/01/22 00:42:54;;;;;;;;;;;6.70;99.90;;;;;;5027611;28;19932;-77
2024/01/22 00:45:40;;;;;;;;;;;6.70;99.90;;;;;;5043499;28;19917;-77
2024/01/22 00:48:26;;;;;;;;;;;6.80;99.90;;;;;;5041433;28;19916;-76
2024/01/22 00:51:12;;;;;;;;;;;6.80;99.90;;;;;;5034843;28;20044;-76
2024/01/22 00:53:58;;;;;;;;;;;6.80;99.90;;;;;;5032146;28;20302;-76
2024/01/22 00:59:19;;;;;;;;;;;6.80;99.90;;;;;;4998017;28;19959;-74
2024/01/22 01:02:05;;;;;;;;;;;6.90;99.90;;;;;;4992618;28;19924;-74
2024/01/22 01:04:52;;;;;;;;;;;6.90;99.90;;;;;;4989876;28;19925;-74
2024/01/22 01:10:14;;;;;;;;;;;6.90;99.90;;;;;;4389397;28;20997;-74
2024/01/22 01:13:00;;;;;;;;;;;6.90;99.90;;;;;;4991595;28;20304;-74
2024/01/22 01:15:45;;;;;;;;;;;6.90;99.90;;;;;;5006209;28;19924;-74
2024/01/22 01:18:31;;;;;;;;;;;6.90;99.90;;;;;;5034279;28;19953;-74
2024/01/22 01:21:22;;;;;;;;;;;7.00;99.90;;;;;;5015920;28;20253;-75
2024/01/22 01:24:08;;;;;;;;;;;7.00;99.90;;;;;;5013503;28;19996;-75
2024/01/22 01:26:54;;;;;;;;;;;7.00;99.90;;;;;;4998796;28;19917;-75
2024/01/22 01:29:40;;;;;;;;;;;7.00;99.90;;;;;;4980012;28;19924;-74
2024/01/22 01:32:26;;;;;;;;;;;7.00;99.90;;;;;;4994999;28;19918;-75
2024/01/22 01:35:12;;;;;;;;;;;7.00;99.90;;;;;;4994704;28;19918;-74
2024/01/22 01:37:58;;;;;;;;;;;7.00;99.90;;;;;;4985060;28;20001;-74
2024/01/22 01:40:44;;;;;;;;;;;7.00;99.90;;;;;;5000361;28;20353;-75
2024/01/22 01:43:29;;;;;;;;;;;7.00;99.90;;;;;;5000443;28;19928;-75
2024/01/22 01:46:15;;;;;;;;;;;6.90;99.90;;;;;;4987249;28;20630;-75
2024/01/22 01:49:01;;;;;;;;;;;6.90;99.90;;;;;;5000363;28;19961;-75
2024/01/22 01:51:47;;;;;;;;;;;6.90;99.90;;;;;;5000516;28;19983;-74
2024/01/22 01:54:33;;;;;;;;;;;6.90;99.90;;;;;;4989308;28;19917;-75
2024/01/22 01:57:21;;;;;;;;;;;6.90;99.90;;;;;;4983938;28;20230;-74
2024/01/22 02:00:09;;;;;;;;;;;6.90;99.90;;;;;;4999059;28;20028;-74
2024/01/22 02:02:55;;;;;;;;;;;6.90;99.90;;;;;;4998338;28;20248;-74
2024/01/22 02:05:41;;;;;;;;;;;6.90;99.90;;;;;;4985841;28;19921;-74
2024/01/22 02:08:27;;;;;;;;;;;6.90;99.90;;;;;;5008223;28;19921;-74
2024/01/22 02:11:13;;;;;;;;;;;6.90;99.90;;;;;;4980658;28;19933;-75
2024/01/22 02:13:59;;;;;;;;;;;6.90;99.90;;;;;;4993697;28;19918;-75
2024/01/22 02:16:45;;;;;;;;;;;6.90;99.90;;;;;;4999698;28;19917;-75
2024/01/22 02:19:30;;;;;;;;;;;6.90;99.90;;;;;;4987134;28;19922;-75
2024/01/22 02:22:16;;;;;;;;;;;7.00;99.90;;;;;;4986947;28;20345;-74
2024/01/22 02:25:02;;;;;;;;;;;7.00;99.90;;;;;;4999621;28;19917;-75
2024/01/22 02:27:48;;;;;;;;;;;7.00;99.90;;;;;;4991863;28;19913;-74
2024/01/22 02:30:34;;;;;;;;;;;7.10;99.90;;;;;;4979095;28;19918;-75
2024/01/22 02:33:20;;;;;;;;;;;7.10;99.90;;;;;;4977243;28;20287;-74
2024/01/22 02:36:06;;;;;;;;;;;7.20;99.90;;;;;;4986241;28;19928;-75
2024/01/22 02:38:52;;;;;;;;;;;7.20;99.90;;;;;;4986861;28;19914;-74
2024/01/22 02:41:38;;;;;;;;;;;7.30;99.90;;;;;;4998810;28;19922;-75
2024/01/22 02:44:24;;;;;;;;;;;7.30;99.90;;;;;;5009242;28;20223;-74
2024/01/22 02:47:10;;;;;;;;;;;7.40;99.90;;;;;;4999648;28;19913;-75
2024/01/22 02:49:56;;;;;;;;;;;7.40;99.90;;;;;;5000108;28;19913;-75
2024/01/22 02:52:42;;;;;;;;;;;7.40;99.90;;;;;;4993819;28;20389;-74
2024/01/22 02:55:27;;;;;;;;;;;7.40;99.90;;;;;;4999450;28;19913;-75
2024/01/22 02:58:13;;;;;;;;;;;7.40;99.90;;;;;;4999836;28;19989;-74
2024/01/22 03:00:59;;;;;;;;;;;7.40;99.90;;;;;;4998492;28;19948;-74
2024/01/22 03:03:45;;;;;;;;;;;7.50;99.90;;;;;;4998139;28;19917;-75
2024/01/22 03:06:31;;;;;;;;;;;7.60;99.90;;;;;;4997553;28;19947;-75
2024/01/22 03:09:17;;;;;;;;;;;7.60;99.90;;;;;;4995293;28;19953;-75
2024/01/22 03:12:03;;;;;;;;;;;7.60;99.90;;;;;;4970527;28;19925;-75
2024/01/22 03:14:49;;;;;;;;;;;7.70;99.90;;;;;;4979363;28;20215;-75
2024/01/22 03:17:34;;;;;;;;;;;7.70;99.90;;;;;;4979905;28;19949;-75
2024/01/22 03:20:20;;;;;;;;;;;7.80;99.90;;;;;;4988909;28;19944;-74
2024/01/22 03:23:06;;;;;;;;;;;7.80;99.90;;;;;;4988891;28;19944;-75
2024/01/22 03:25:52;;;;;;;;;;;7.80;99.90;;;;;;4980099;28;20007;-73
2024/01/22 03:28:39;;;;;;;;;;;7.80;99.90;;;;;;5001053;28;20234;-74
2024/01/22 03:31:26;;;;;;;;;;;7.90;99.90;;;;;;4999030;28;19956;-74
2024/01/22 03:34:12;;;;;;;;;;;7.90;99.90;;;;;;4979350;28;19918;-74
2024/01/22 03:36:58;;;;;;;;;;;7.90;99.90;;;;;;5007899;28;19913;-73
2024/01/22 03:39:43;;;;;;;;;;;7.90;99.90;;;;;;4999875;28;20265;-74
2024/01/22 03:42:29;;;;;;;;;;;7.90;99.90;;;;;;4985194;28;19934;-74
2024/01/22 03:45:15;;;;;;;;;;;7.90;99.90;;;;;;4986314;28;19928;-74
2024/01/22 03:48:01;;;;;;;;;;;8.00;99.90;;;;;;4993313;28;20293;-74
2024/01/22 03:50:47;;;;;;;;;;;8.00;99.90;;;;;;4978722;28;19980;-74
2024/01/22 03:53:33;;;;;;;;;;;8.00;99.90;;;;;;4996914;28;19917;-74
2024/01/22 03:56:19;;;;;;;;;;;8.00;99.90;;;;;;4999426;28;19918;-74
2024/01/22 03:59:05;;;;;;;;;;;8.00;99.90;;;;;;4997915;28;19983;-74
2024/01/22 04:01:52;;;;;;;;;;;8.00;99.90;;;;;;4997724;28;19956;-75
2024/01/22 04:04:38;;;;;;;;;;;8.00;99.90;;;;;;4999194;28;20317;-75
2024/01/22 04:07:24;;;;;;;;;;;8.10;99.90;;;;;;4986346;28;19978;-75
2024/01/22 04:10:10;;;;;;;;;;;8.10;99.90;;;;;;4992797;28;20004;-74
2024/01/22 04:12:56;;;;;;;;;;;8.00;99.90;;;;;;4999659;28;19913;-75
2024/01/22 04:15:42;;;;;;;;;;;8.00;99.90;;;;;;4999671;28;19972;-74
2024/01/22 04:18:28;;;;;;;;;;;8.10;99.90;;;;;;5008694;28;19913;-75
2024/01/22 04:21:14;;;;;;;;;;;8.10;99.90;;;;;;4999377;28;20016;-74
2024/01/22 04:24:00;;;;;;;;;;;8.10;99.90;;;;;;4999627;28;19913;-75
2024/01/22 04:26:45;;;;;;;;;;;8.10;99.90;;;;;;5001637;28;19929;-76
2024/01/22 04:29:34;;;;;;;;;;;8.10;99.90;;;;;;4999160;28;19928;-75
2024/01/22 04:32:20;;;;;;;;;;;8.20;99.90;;;;;;4998899;28;19917;-75
2024/01/22 04:35:07;;;;;;;;;;;8.10;99.90;;;;;;4987800;28;20368;-75
2024/01/22 04:37:53;;;;;;;;;;;8.20;99.90;;;;;;5014020;28;19921;-74
2024/01/22 04:40:39;;;;;;;;;;;8.20;99.90;;;;;;4995925;28;19976;-74
2024/01/22 04:43:25;;;;;;;;;;;8.30;99.90;;;;;;4989975;28;19980;-74
2024/01/22 04:46:11;;;;;;;;;;;8.20;99.90;;;;;;4982677;28;19918;-75
2024/01/22 04:48:56;;;;;;;;;;;8.30;99.90;;;;;;4994593;28;19917;-74
2024/01/22 04:51:42;;;;;;;;;;;8.40;99.90;;;;;;4989082;28;19917;-74
2024/01/22 04:54:28;;;;;;;;;;;8.40;99.90;;;;;;5001771;28;19921;-75
2024/01/22 04:57:14;;;;;;;;;;;8.40;99.90;;;;;;4985226;28;20313;-75
2024/01/22 05:00:00;;;;;;;;;;;8.40;99.90;;;;;;5001930;28;19984;-74
2024/01/22 05:02:46;;;;;;;;;;;8.40;99.90;;;;;;4995907;28;20272;-75
2024/01/22 05:05:32;;;;;;;;;;;8.40;99.90;;;;;;5001247;28;19929;-75
2024/01/22 05:08:18;;;;;;;;;;;8.50;99.90;;;;;;4996108;28;19933;-75
2024/01/22 05:11:04;;;;;;;;;;;8.50;99.90;;;;;;4982431;28;19993;-75
2024/01/22 05:13:51;;;;;;;;;;;8.50;99.90;;;;;;5016069;28;20350;-75
2024/01/22 05:16:39;;;;;;;;;;;8.50;99.90;;;;;;4985460;28;19918;-74
2024/01/22 05:19:28;;;;;;;;;;;8.50;99.90;;;;;;4992949;28;19918;-74
2024/01/22 05:22:14;;;;;;;;;;;8.40;99.90;;;;;;4987572;28;19913;-74
2024/01/22 05:25:00;;;;;;;;;;;8.50;99.90;;;;;;4986822;28;19970;-74
2024/01/22 05:27:47;;;;;;;;;;;8.40;99.90;;;;;;4980678;28;19957;-74
2024/01/22 05:30:33;;;;;;;;;;;8.50;99.90;;;;;;4992248;28;19920;-74
2024/01/22 05:33:19;;;;;;;;;;;8.50;99.90;;;;;;5004969;28;19913;-73
2024/01/22 05:36:05;;;;;;;;;;;8.50;99.90;;;;;;5001311;28;20361;-75
2024/01/22 05:38:53;;;;;;;;;;;8.50;99.90;;;;;;4999849;28;20231;-74
2024/01/22 05:41:42;;;;;;;;;;;8.50;99.90;;;;;;4999835;28;20381;-74
2024/01/22 05:44:28;;;;;;;;;;;8.50;99.90;;;;;;4996210;28;19913;-75
2024/01/22 05:47:14;;;;;;;;;;;8.50;99.90;;;;;;5014540;28;19914;-74
2024/01/22 05:50:00;;;;;;;;;;;8.50;99.90;;;;;;4999690;28;19917;-74
2024/01/22 05:52:45;;;;;;;;;;;8.50;99.90;;;;;;4984326;28;19921;-74
2024/01/22 05:55:31;;;;;;;;;;;8.50;99.90;;;;;;4999224;28;19932;-75
2024/01/22 05:58:17;;;;;;;;;;;8.60;99.90;;;;;;5000559;28;19964;-74
2024/01/22 06:01:03;;;;;;;;;;;8.60;99.90;;;;;;5001114;28;20325;-74
2024/01/22 06:03:49;;;;;;;;;;;8.60;99.90;;;;;;4991689;28;19924;-74
2024/01/22 06:06:36;;;;;;;;;;;8.50;99.90;;;;;;5014208;28;20600;-74
2024/01/22 06:09:22;;;;;;;;;;;8.60;99.90;;;;;;4999124;28;19957;-74
2024/01/22 06:12:08;;;;;;;;;;;8.50;99.90;;;;;;5010579;28;19981;-74
2024/01/22 06:14:54;;;;;;;;;;;8.50;99.90;;;;;;4996476;28;19917;-73
2024/01/22 06:17:40;;;;;;;;;;;8.50;99.90;;;;;;5013465;28;19913;-73
2024/01/22 06:20:26;;;;;;;;;;;8.50;99.90;;;;;;5012138;28;19916;-74
2024/01/22 06:23:12;;;;;;;;;;;8.50;99.90;;;;;;5015996;28;20270;-74
2024/01/22 06:25:58;;;;;;;;;;;8.40;99.90;;;;;;5004785;28;19913;-74
2024/01/22 06:28:47;;;;;;;;;;;8.40;99.90;;;;;;5000532;28;19990;-74
2024/01/22 06:31:33;;;;;;;;;;;8.40;99.90;;;;;;4989295;28;19964;-74
2024/01/22 06:34:19;;;;;;;;;;;8.30;99.90;;;;;;5007787;28;19979;-74
2024/01/22 06:37:05;;;;;;;;;;;8.20;99.90;;;;;;4980265;28;19971;-74
2024/01/22 06:39:50;;;;;;;;;;;8.20;99.90;;;;;;4986959;28;20000;-74
2024/01/22 06:42:36;;;;;;;;;;;8.20;99.90;;;;;;4997161;28;19917;-74
2024/01/22 06:45:22;;;;;;;;;;;8.20;99.90;;;;;;5000347;28;19987;-74
2024/01/22 06:48:08;;;;;;;;;;;8.20;99.90;;;;;;4979287;28;19941;-74
2024/01/22 06:50:54;;;;;;;;;;;8.20;99.90;;;;;;4982747;28;19968;-74
2024/01/22 06:53:40;;;;;;;;;;;8.20;99.90;;;;;;4995961;28;20393;-75
2024/01/22 06:56:26;;;;;;;;;;;8.10;99.90;;;;;;4970398;28;19984;-74
2024/01/22 06:59:12;;;;;;;;;;;8.10;99.90;;;;;;5000123;28;20207;-77
2024/01/22 07:01:58;;;;;;;;;;;8.10;99.90;;;;;;4988534;28;19918;-77
2024/01/22 07:04:46;;;;;;;;;;;8.20;99.90;;;;;;5001427;28;20325;-77
2024/01/22 07:07:32;;;;;;;;;;;8.20;99.90;;;;;;4981775;28;20008;-76
2024/01/22 07:10:18;;;;;;;;;;;8.20;99.90;;;;;;4998329;28;20326;-76
2024/01/22 07:13:03;;;;;;;;;;;8.20;99.90;;;;;;4987621;28;19918;-77
2024/01/22 07:15:50;;;;;;;;;;;8.20;99.90;;;;;;5000644;28;19968;-74
2024/01/22 07:18:36;;;;;;;;;;;8.20;99.90;;;;;;5006921;28;19976;-74
2024/01/22 07:21:22;;;;;;;;;;;8.30;99.90;;;;;;4989676;28;19922;-74
2024/01/22 07:24:09;;;;;;;;;;;8.30;99.90;;;;;;4983408;28;20040;-74
2024/01/22 07:26:55;;;;;;;;;;;8.30;99.90;;;;;;4987575;28;19929;-74
2024/01/22 07:29:42;;;;;;;;;;;8.30;99.90;;;;;;4999180;28;19917;-74
2024/01/22 07:32:29;;;;;;;;;;;8.40;99.90;;;;;;4999546;28;20405;-76
2024/01/22 07:35:15;;;;;;;;;;;8.30;99.90;;;;;;5000094;28;19975;-76
2024/01/22 07:38:01;;;;;;;;;;;8.30;99.90;;;;;;4968763;28;19976;-76
2024/01/22 07:40:47;;;;;;;;;;;8.30;99.90;;;;;;5000724;28;19926;-75
2024/01/22 07:43:33;;;;;;;;;;;8.30;99.90;;;;;;4986820;28;20027;-77
2024/01/22 07:46:18;;;;;;;;;;;8.40;99.90;;;;;;5004729;28;19920;-76
2024/01/22 07:49:04;;;;;;;;;;;8.40;99.90;;;;;;5007354;28;20375;-77
2024/01/22 07:51:50;;;;;;;;;;;8.40;99.90;;;;;;4999049;28;19956;-76
2024/01/22 07:54:36;;;;;;;;;;;8.50;99.90;;;;;;5012998;28;19913;-76
2024/01/22 07:57:22;;;;;;;;;;;8.50;99.90;;;;;;5019607;28;19980;-76
2024/01/22 08:00:11;;;;;;;;;;;8.50;99.90;;;;;;5001963;28;19921;-76
2024/01/22 08:02:57;;;;;;;;;;;8.50;99.90;;;;;;4988071;28;20310;-76
2024/01/22 08:05:43;;;;;;;;;;;8.50;99.90;;;;;;4985119;28;19945;-76
2024/01/22 08:08:28;;;;;;;;;;;8.50;99.90;;;;;;4987061;28;19913;-76
2024/01/22 08:11:14;;;;;;;;;;;8.50;99.90;;;;;;5006432;28;20409;-76
2024/01/22 08:14:01;;;;;;;;;;;8.50;99.90;;;;;;5004748;28;19913;-76
2024/01/22 08:16:49;;;;;;;;;;;8.60;99.90;;;;;;4997765;28;19929;-77
2024/01/22 08:19:36;;;;;;;;;;;8.50;99.90;;;;;;5016713;28;19979;-76
2024/01/22 08:22:21;;;;;;;;;;;8.60;99.90;;;;;;4990100;28;19933;-75
2024/01/22 08:25:07;;;;;;;;;;;8.60;99.90;;;;;;5003439;28;19971;-75
2024/01/22 08:27:56;;;;;;;;;;;8.60;99.90;;;;;;4989581;28;20000;-76
2024/01/22 08:30:42;;;;;;;;;;;8.60;99.90;;;;;;5002730;28;20059;-76
2024/01/22 08:33:28;;;;;;;;;;;8.60;99.90;;;;;;5002962;28;19917;-76
2024/01/22 08:36:14;;;;;;;;;;;8.60;99.90;;;;;;5003638;28;19924;-76
2024/01/22 08:39:00;;;;;;;;;;;8.60;99.90;;;;;;5002895;28;20245;-77
2024/01/22 08:41:46;;;;;;;;;;;8.70;99.90;;;;;;5004697;28;20765;-77
2024/01/22 08:44:32;;;;;;;;;;;8.70;99.90;;;;;;4972423;28;19918;-76
2024/01/22 08:47:18;;;;;;;;;;;8.70;99.90;;;;;;5002564;28;19918;-76
2024/01/22 08:50:04;;;;;;;;;;;8.80;99.90;;;;;;5002239;28;19953;-77
2024/01/22 08:52:52;;;;;;;;;;;8.80;99.90;;;;;;4984901;28;19952;-76
2024/01/22 08:55:38;;;;;;;;;;;8.90;99.90;;;;;;4997124;28;19947;-77
2024/01/22 08:58:24;;;;;;;;;;;8.90;99.90;;;;;;4993906;28;19929;-76
2024/01/22 09:01:10;;;;;;;;;;;8.90;99.90;;;;;;4980846;28;19921;-76
2024/01/22 09:03:56;;;;;;;;;;;9.00;99.90;;;;;;4990955;28;20485;-76
2024/01/22 09:06:42;;;;;;;;;;;9.00;99.90;;;;;;5001186;28;19925;-76
2024/01/22 09:09:28;;;;;;;;;;;9.00;99.90;;;;;;5002427;28;20000;-75
2024/01/22 09:12:14;;;;;;;;;;;9.00;99.90;;;;;;4989419;28;19921;-76
2024/01/22 09:15:00;;;;;;;;;;;9.00;99.90;;;;;;5005866;28;19917;-76
2024/01/22 09:17:46;;;;;;;;;;;9.10;99.90;;;;;;5012088;28;19913;-76
2024/01/22 09:20:32;;;;;;;;;;;9.10;99.90;;;;;;5019047;28;20334;-76
2024/01/22 09:23:18;;;;;;;;;;;9.10;99.90;;;;;;4972715;28;19917;-76
2024/01/22 09:26:05;;;;;;;;;;;9.10;99.90;;;;;;5006301;28;19917;-76
2024/01/22 09:28:51;;;;;;;;;;;9.10;99.90;;;;;;4989663;28;19925;-77
2024/01/22 09:31:37;;;;;;;;;;;9.10;99.90;;;;;;5008821;28;19916;-77
2024/01/22 09:34:23;;;;;;;;;;;9.10;99.90;;;;;;5005000;28;20000;-77
2024/01/22 09:37:08;;;;;;;;;;;9.10;99.90;;;;;;5008375;28;19922;-76
2024/01/22 09:39:54;;;;;;;;;;;9.00;99.90;;;;;;5009306;28;20056;-76
2024/01/22 09:42:40;;;;;;;;;;;9.00;99.90;;;;;;4981210;28;19953;-77
2024/01/22 09:45:28;;;;;;;;;;;9.00;99.90;;;;;;4998708;28;19917;-76
2024/01/22 09:48:14;;;;;;;;;;;9.00;99.90;;;;;;4969357;28;20012;-77
2024/01/22 09:51:00;;;;;;;;;;;9.00;99.90;;;;;;4982537;28;20612;-77
2024/01/22 09:53:47;;;;;;;;;;;9.00;99.90;;;;;;4986253;28;19913;-77
2024/01/22 09:56:33;;;;;;;;;;;9.00;99.90;;;;;;4993828;28;19913;-77
2024/01/22 09:59:19;;;;;;;;;;;9.00;99.90;;;;;;4987807;28;20008;-77
2024/01/22 10:02:05;;;;;;;;;;;8.90;99.90;;;;;;5001039;28;20373;-77
2024/01/22 10:04:51;;;;;;;;;;;8.90;99.90;;;;;;5000520;28;20117;-77
2024/01/22 10:07:37;;;;;;;;;;;8.90;99.90;;;;;;5000402;28;19948;-76
2024/01/22 10:10:23;;;;;;;;;;;9.00;99.90;;;;;;5001838;28;20017;-77
2024/01/22 10:13:09;;;;;;;;;;;8.90;99.90;;;;;;4998624;28;19924;-77
2024/01/22 10:15:56;;;;;;;;;;;9.00;99.90;;;;;;5010014;28;19924;-77
2024/01/22 10:19:00;;;;;;;;;;;9.00;99.90;;;;;;5001322;28;19926;-77
2024/01/22 10:21:46;;;;;;;;;;;9.00;99.90;;;;;;4991648;28;19917;-77
2024/01/22 10:24:32;;;;;;;;;;;9.10;99.90;;;;;;5001469;28;19933;-76
2024/01/22 10:27:18;;;;;;;;;;;9.10;99.90;;;;;;4988408;28;19917;-78
2024/01/22 10:30:08;;;;;;;;;;;9.10;99.90;;;;;;5004649;28;19945;-77
2024/01/22 10:33:07;;;;;;;;;;;9.10;99.90;;;;;;4993986;28;19986;-76
2024/01/22 10:35:53;;;;;;;;;;;9.20;99.90;;;;;;4997109;28;19924;-76
2024/01/22 10:38:38;;;;;;;;;;;9.20;99.90;;;;;;5010923;28;19928;-76
2024/01/22 10:41:24;;;;;;;;;;;9.20;99.90;;;;;;4968293;28;19921;-76
2024/01/22 10:44:10;;;;;;;;;;;9.30;99.90;;;;;;4998172;28;20324;-76
2024/01/22 10:46:56;;;;;;;;;;;9.20;99.90;;;;;;4998879;28;19913;-77
2024/01/22 10:49:42;;;;;;;;;;;9.30;99.90;;;;;;4988132;28;20511;-76
2024/01/22 10:52:29;;;;;;;;;;;9.30;99.90;;;;;;4979649;28;19923;-76
2024/01/22 10:55:15;;;;;;;;;;;9.30;99.90;;;;;;4975117;28;20004;-76
2024/01/22 10:58:01;;;;;;;;;;;9.30;99.90;;;;;;4995729;28;19913;-76
2024/01/22 11:00:47;;;;;;;;;;;9.30;99.90;;;;;;4993492;28;19992;-77
2024/01/22 11:03:33;;;;;;;;;;;9.30;99.90;;;;;;4984411;28;19913;-74
2024/01/22 11:06:20;;;;;;;;;;;9.30;99.90;;;;;;4985019;28;19923;-75
2024/01/22 11:09:07;;;;;;;;;;;9.40;99.90;;;;;;4980166;28;19918;-74
2024/01/22 11:11:53;;;;;;;;;;;9.30;99.90;;;;;;4986767;28;19925;-74
2024/01/22 11:14:39;;;;;;;;;;;9.40;99.90;;;;;;4991972;28;19918;-74
2024/01/22 11:17:25;;;;;;;;;;;9.40;99.90;;;;;;4991507;28;19918;-74
2024/01/22 11:20:15;;;;;;;;;;;9.40;99.90;;;;;;5003891;28;20397;-74
2024/01/22 11:23:01;;;;;;;;;;;9.40;99.90;;;;;;4982709;28;19925;-73
2024/01/22 11:25:47;;;;;;;;;;;9.40;99.90;;;;;;4995379;28;19922;-74
2024/01/22 11:28:33;;;;;;;;;;;9.40;99.90;;;;;;4980791;28;19976;-74
2024/01/22 11:31:25;;;;;;;;;;;9.40;99.90;;;;;;4997447;28;19914;-74
2024/01/22 11:34:11;;;;;;;;;;;9.40;99.90;;;;;;4988952;28;19917;-74
2024/01/22 11:36:57;;;;;;;;;;;9.40;99.90;;;;;;4981324;28;19960;-75
2024/01/22 11:39:43;;;;;;;;;;;9.40;99.90;;;;;;4978331;28;19933;-74
2024/01/22 11:42:29;;;;;;;;;;;9.50;99.90;;;;;;4979433;28;19925;-74
2024/01/22 11:45:15;;;;;;;;;;;9.50;99.90;;;;;;4983115;28;20024;-74
2024/01/22 11:48:01;;;;;;;;;;;9.50;99.90;;;;;;4998120;28;19923;-74
2024/01/22 11:50:58;;;;;;;;;;;9.50;99.90;;;;;;4985071;28;20258;-74
2024/01/22 11:53:51;;;;;;;;;;;9.50;99.90;;;;;;4991303;28;20377;-74
2024/01/22 11:56:37;;;;;;;;;;;9.40;99.90;;;;;;4990061;28;19992;-74
2024/01/22 11:59:23;;;;;;;;;;;9.40;99.90;;;;;;4986096;28;19917;-74
2024/01/22 12:02:09;;;;;;;;;;;9.40;99.90;;;;;;5002304;28;20059;-75
2024/01/22 12:05:02;;;;;;;;;;;9.40;99.90;;;;;;4994233;28;19918;-74
2024/01/22 12:07:49;;;;;;;;;;;9.50;99.90;;;;;;4980576;28;20700;-75
2024/01/22 12:10:35;;;;;;;;;;;9.50;99.90;;;;;;4985713;28;20579;-74
2024/01/22 12:13:22;;;;;;;;;;;9.50;99.90;;;;;;4987544;28;19932;-74
2024/01/22 12:16:12;;;;;;;;;;;9.50;99.90;;;;;;4987106;28;19941;-74
2024/01/22 12:18:59;;;;;;;;;;;9.50;99.90;;;;;;5000216;28;20666;-74
2024/01/22 12:21:44;;;;;;;;;;;9.50;99.90;;;;;;4980624;28;19928;-74
2024/01/22 12:24:30;;;;;;;;;;;9.50;99.90;;;;;;5001418;28;20007;-74
2024/01/22 12:27:19;;;;;;;;;;;9.60;99.90;;;;;;4993754;28;19949;-74
2024/01/22 12:30:06;;;;;;;;;;;9.60;99.90;;;;;;4986201;28;19917;-75
2024/01/22 12:32:54;;;;;;;;;;;9.60;99.90;;;;;;5000357;28;20124;-76
2024/01/22 12:35:43;;;;;;;;;;;9.60;99.90;;;;;;5000043;28;19922;-75
2024/01/22 12:38:30;;;;;;;;;;;9.60;99.90;;;;;;4996735;28;19918;-75
2024/01/22 12:41:16;;;;;;;;;;;9.60;99.90;;;;;;4985284;28;19918;-72
2024/01/22 12:44:02;;;;;;;;;;;9.60;99.90;;;;;;4999395;28;20309;-74
2024/01/22 12:46:48;;;;;;;;;;;9.60;99.90;;;;;;5023847;28;19914;-75
2024/01/22 12:49:34;;;;;;;;;;;9.60;99.90;;;;;;4980233;28;19913;-74
2024/01/22 12:52:20;;;;;;;;;;;9.60;99.90;;;;;;5013667;28;20389;-74
2024/01/22 12:55:13;;;;;;;;;;;9.60;99.90;;;;;;4979559;28;19918;-74
2024/01/22 12:57:59;;;;;;;;;;;9.60;99.90;;;;;;4990241;28;19988;-74
2024/01/22 13:00:45;;;;;;;;;;;9.60;99.90;;;;;;4998927;28;19921;-75
2024/01/22 13:03:31;;;;;;;;;;;9.60;99.90;;;;;;4998826;28;19928;-74
2024/01/22 13:06:17;;;;;;;;;;;9.70;99.90;;;;;;4974629;28;19913;-73
2024/01/22 13:09:03;;;;;;;;;;;9.70;99.90;;;;;;4993756;28;19929;-74
2024/01/22 13:11:49;;;;;;;;;;;9.70;99.90;;;;;;5000104;28;19925;-74
2024/01/22 13:14:35;;;;;;;;;;;9.70;99.90;;;;;;4999050;28;19913;-74
2024/01/22 13:17:21;;;;;;;;;;;9.70;99.90;;;;;;5011875;28;19996;-73
2024/01/22 13:20:07;;;;;;;;;;;9.70;99.90;;;;;;5003391;28;19917;-74
2024/01/22 13:22:54;;;;;;;;;;;9.80;99.90;;;;;;5031281;28;19917;-75
2024/01/22 13:25:40;;;;;;;;;;;9.80;99.90;;;;;;5005759;28;19930;-75
2024/01/22 13:28:26;;;;;;;;;;;9.70;99.90;;;;;;5032543;28;19917;-75
2024/01/22 13:31:12;;;;;;;;;;;9.80;99.90;;;;;;5018867;28;19917;-75
2024/01/22 13:33:58;;;;;;;;;;;9.70;99.90;;;;;;5023748;28;19992;-76
2024/01/22 13:36:43;;;;;;;;;;;9.60;99.90;;;;;;5019428;28;19996;-74
2024/01/22 13:39:29;;;;;;;;;;;9.70;99.90;;;;;;5016537;28;20003;-74
2024/01/22 13:42:15;;;;;;;;;;;9.60;99.90;;;;;;5017540;28;19924;-74
2024/01/22 13:45:02;;;;;;;;;;;9.50;99.90;;;;;;5017350;28;20047;-74
2024/01/22 13:47:47;;;;;;;;;;;9.50;99.90;;;;;;4993214;28;19921;-74
2024/01/22 13:50:33;;;;;;;;;;;9.40;99.90;;;;;;5013468;28;19927;-74
2024/01/22 13:53:19;;;;;;;;;;;9.50;99.90;;;;;;5016257;28;19964;-74
2024/01/22 13:56:07;;;;;;;;;;;9.40;99.90;;;;;;5015739;28;19975;-74
2024/01/22 13:58:53;;;;;;;;;;;9.30;99.90;;;;;;4999421;28;19953;-74
2024/01/22 14:01:39;;;;;;;;;;;9.10;99.90;;;;;;4991290;28;19925;-74
2024/01/22 14:04:25;;;;;;;;;;;9.00;99.90;;;;;;4996785;28;20537;-74
2024/01/22 14:07:11;;;;;;;;;;;8.80;99.90;;;;;;5000381;28;19996;-73
2024/01/22 14:09:57;;;;;;;;;;;8.80;99.90;;;;;;5029426;28;19917;-74
2024/01/22 14:12:44;;;;;;;;;;;8.60;99.90;;;;;;5002569;28;19951;-74
2024/01/22 14:15:29;;;;;;;;;;;8.60;99.90;;;;;;4999151;28;19971;-74
2024/01/22 14:18:16;;;;;;;;;;;8.60;99.90;;;;;;5016189;28;19928;-74
2024/01/22 14:21:02;;;;;;;;;;;8.60;99.90;;;;;;5020198;28;19931;-74
2024/01/22 14:23:48;;;;;;;;;;;8.60;99.90;;;;;;5015730;28;19992;-74
2024/01/22 14:26:34;;;;;;;;;;;8.60;99.90;;;;;;5017206;28;19917;-74
2024/01/22 14:29:21;;;;;;;;;;;8.60;99.90;;;;;;5015461;28;20373;-74
2024/01/22 14:32:07;;;;;;;;;;;8.60;99.90;;;;;;5016407;28;19917;-74
2024/01/22 14:34:53;;;;;;;;;;;8.60;99.90;;;;;;5014519;28;19927;-74
2024/01/22 14:37:38;;;;;;;;;;;8.50;99.90;;;;;;5029397;28;19917;-74
2024/01/22 14:40:24;;;;;;;;;;;8.50;99.90;;;;;;5020087;28;19975;-73
2024/01/22 14:43:10;;;;;;;;;;;8.50;99.90;;;;;;5016031;28;19947;-74
2024/01/22 14:45:56;;;;;;;;;;;8.40;99.90;;;;;;5018977;28;19975;-74
2024/01/22 14:48:42;;;;;;;;;;;8.30;99.90;;;;;;5014463;28;20312;-74
2024/01/22 14:51:28;;;;;;;;;;;8.20;99.90;;;;;;5030280;28;19990;-74
2024/01/22 14:54:14;;;;;;;;;;;8.20;99.90;;;;;;5015183;28;19992;-75
2024/01/22 14:57:00;;;;;;;;;;;8.20;99.90;;;;;;4992285;28;19959;-74
2024/01/22 14:59:45;;;;;;;;;;;8.10;99.90;;;;;;5021371;28;19952;-74
2024/01/22 15:02:31;;;;;;;;;;;8.10;99.90;;;;;;5016027;28;19987;-74
2024/01/22 15:05:18;;;;;;;;;;;8.10;99.90;;;;;;5015518;28;20016;-73
2024/01/22 15:08:04;;;;;;;;;;;8.10;99.90;;;;;;4998317;28;20309;-73
2024/01/22 15:10:50;;;;;;;;;;;8.20;99.90;;;;;;5002028;28;19925;-73
2024/01/22 15:13:36;;;;;;;;;;;8.20;99.90;;;;;;5012703;28;20364;-74
2024/01/22 15:16:22;;;;;;;;;;;8.20;99.90;;;;;;5015311;28;19928;-74
2024/01/22 15:19:08;;;;;;;;;;;8.10;99.90;;;;;;5008755;28;19917;-74
2024/01/22 15:21:57;;;;;;;;;;;8.10;99.90;;;;;;5019761;28;19921;-74
2024/01/22 15:24:43;;;;;;;;;;;8.00;99.90;;;;;;5009373;28;19917;-74
2024/01/22 15:27:29;;;;;;;;;;;8.00;99.90;;;;;;5002350;28;19913;-74
2024/01/22 15:30:15;;;;;;;;;;;8.00;99.90;;;;;;5016504;28;20563;-74
2024/01/22 15:33:01;;;;;;;;;;;7.90;99.90;;;;;;5015507;28;19920;-75
2024/01/22 15:35:46;;;;;;;;;;;7.90;99.90;;;;;;5016057;28;19927;-74
2024/01/22 15:38:32;;;;;;;;;;;7.80;99.90;;;;;;5004842;28;20210;-74
2024/01/22 15:41:18;;;;;;;;;;;7.80;99.90;;;;;;5013690;28;20016;-77
2024/01/22 15:44:13;;;;;;;;;;;7.80;99.90;;;;;;5036915;28;19965;-81
2024/01/22 15:46:58;;;;;;;;;;;7.90;99.90;;;;;;5047277;28;19902;-79
2024/01/22 15:49:47;;;;;;;;;;;7.80;99.90;;;;;;5028594;28;19921;-77
2024/01/22 15:52:36;;;;;;;;;;;7.70;99.90;;;;;;5003583;28;19920;-76
2024/01/22 15:55:22;;;;;;;;;;;7.70;99.90;;;;;;4995736;28;19929;-77
2024/01/22 15:58:08;;;;;;;;;;;7.70;99.90;;;;;;5031925;28;20035;-75
2024/01/22 16:00:54;;;;;;;;;;;7.70;99.90;;;;;;5016578;28;19980;-79
2024/01/22 16:03:40;;;;;;;;;;;7.70;99.90;;;;;;5030374;28;19921;-79
2024/01/22 16:06:26;;;;;;;;;;;7.60;99.90;;;;;;5016048;28;19917;-76
2024/01/22 16:09:11;;;;;;;;;;;7.60;99.90;;;;;;5003536;28;20008;-76
2024/01/22 16:11:57;;;;;;;;;;;7.60;99.90;;;;;;5010147;28;19968;-75
2024/01/22 16:14:43;;;;;;;;;;;7.60;99.90;;;;;;5013797;28;19928;-76
2024/01/22 16:17:29;;;;;;;;;;;7.60;99.90;;;;;;5012329;28;20269;-76
2024/01/22 16:20:16;;;;;;;;;;;7.60;99.90;;;;;;5009466;28;19932;-79
2024/01/22 16:23:05;;;;;;;;;;;7.70;99.90;;;;;;5015955;28;20601;-75
2024/01/22 16:25:51;;;;;;;;;;;7.70;99.90;;;;;;4994222;28;20310;-75
2024/01/22 16:28:37;;;;;;;;;;;7.70;99.90;;;;;;5011868;28;19918;-74